Time;durP1;ratioP1;P1;durP2;ratioP2;P2;SDS_P1;SDS_P2;PMS_P1;PMS_P2;Temp;Humidity;BMP_temperature;BMP_pressure;BME280_temperature;BME280_humidity;BME280_pressure;Samples;Min_cycle;Max_cycle;Signal;HPM_P1;HPM_P2
2022/04/19 00:02:13;;;;;;;3.17;1.60;;;;;;;7.19;59.27;95658.28;10436861;27;96949;-64
2022/04/19 00:07:16;;;;;;;1.90;1.50;;;;;;;6.94;59.92;95649.31;10429077;27;98491;-64
2022/04/19 00:12:19;;;;;;;1.88;1.38;;;;;;;6.82;60.25;95646.84;10434551;27;98145;-64
2022/04/19 00:17:24;;;;;;;2.20;1.45;;;;;;;6.89;59.91;95646.31;10442621;27;96941;-64
2022/04/19 00:22:28;;;;;;;3.33;1.77;;;;;;;6.87;59.61;95637.81;10430047;27;96794;-64
2022/04/19 00:27:30;;;;;;;2.53;1.58;;;;;;;6.94;59.06;95637.13;10437255;27;96853;-64
2022/04/19 00:32:35;;;;;;;3.10;1.77;;;;;;;6.76;59.67;95631.00;10445651;27;98664;-64
2022/04/19 00:37:40;;;;;;;10.93;4.00;;;;;;;6.52;60.30;95631.44;10440296;27;97004;-64
2022/04/19 00:42:43;;;;;;;6.67;4.07;;;;;;;6.33;61.05;95624.47;10429637;27;98603;-64
2022/04/19 00:47:47;;;;;;;5.60;2.50;;;;;;;6.35;60.30;95625.19;10422697;27;96910;-64
2022/04/19 00:52:50;;;;;;;3.08;1.88;;;;;;;6.37;60.40;95620.69;10434239;27;96727;-64
2022/04/19 00:57:53;;;;;;;2.00;1.40;;;;;;;6.25;60.43;95615.59;10444201;27;98400;-64
2022/04/19 01:02:57;;;;;;;3.35;1.90;;;;;;;5.99;61.81;95620.50;10442203;27;96929;-64
2022/04/19 01:08:07;;;;;;;3.47;1.50;;;;;;;5.92;61.98;95621.19;10434513;27;96816;-64
2022/04/19 01:13:19;;;;;;;2.42;1.50;;;;;;;5.89;61.97;95622.25;10444137;27;98518;-64
2022/04/19 01:18:24;;;;;;;1.77;1.35;;;;;;;6.02;61.42;95620.25;10439962;27;96949;-64
2022/04/19 01:23:29;;;;;;;3.85;1.70;;;;;;;6.05;60.78;95617.38;10453767;27;96743;-64
2022/04/19 01:28:32;;;;;;;2.80;1.50;;;;;;;6.11;60.44;95615.22;10443734;27;96947;-64
2022/04/19 01:33:35;;;;;;;2.05;1.50;;;;;;;6.03;60.44;95619.28;10443357;27;97974;-64
2022/04/19 01:38:39;;;;;;;2.65;1.85;;;;;;;5.88;61.31;95612.88;10443315;27;96815;-64
2022/04/19 01:43:44;;;;;;;3.63;1.83;;;;;;;5.80;61.13;95617.88;10436324;27;100221;-64
2022/04/19 01:48:47;;;;;;;2.90;1.95;;;;;;;5.85;60.18;95618.31;10434981;27;97131;-64
2022/04/19 01:53:52;;;;;;;3.17;1.80;;;;;;;5.94;59.94;95620.09;10446160;27;98598;-64
2022/04/19 01:58:55;;;;;;;2.67;1.75;;;;;;;5.85;59.81;95631.28;10424896;27;97047;-64
2022/04/19 02:03:57;;;;;;;3.42;1.50;;;;;;;5.77;60.26;95623.34;10445957;27;97227;-64
2022/04/19 02:09:03;;;;;;;1.83;1.50;;;;;;;5.55;60.95;95630.38;10442476;27;97722;-64
2022/04/19 02:14:06;;;;;;;2.92;1.55;;;;;;;5.57;60.53;95623.28;10424582;27;97669;-64
2022/04/19 02:19:09;;;;;;;3.42;1.60;;;;;;;5.52;60.76;95628.06;10432436;27;97848;-64
2022/04/19 02:24:13;;;;;;;4.90;2.00;;;;;;;5.40;61.54;95624.72;10427534;27;97864;-64
2022/04/19 02:29:16;;;;;;;2.60;2.08;;;;;;;5.24;62.42;95619.22;10440621;27;96855;-64
2022/04/19 02:34:19;;;;;;;3.47;2.03;;;;;;;5.16;62.27;95604.31;10434877;27;96935;-65
2022/04/19 02:39:23;;;;;;;1.90;1.42;;;;;;;5.19;61.83;95614.44;10435025;27;96935;-64
2022/04/19 02:44:27;;;;;;;3.63;1.83;;;;;;;5.17;61.53;95611.16;10425792;27;96831;-64
2022/04/19 02:49:30;;;;;;;2.90;1.77;;;;;;;5.06;62.08;95613.81;10431162;27;96788;-64
2022/04/19 02:54:34;;;;;;;3.40;1.48;;;;;;;5.15;60.86;95607.88;10436055;27;97931;-64
2022/04/19 02:59:44;;;;;;;2.03;1.65;;;;;;;5.19;59.66;95606.66;10446921;27;97389;-64
2022/04/19 03:04:46;;;;;;;3.45;1.50;;;;;;;5.20;59.75;95610.06;10437406;27;96886;-64
2022/04/19 03:09:51;;;;;;;2.58;1.73;;;;;;;5.13;61.04;95614.94;10420345;27;96755;-64
2022/04/19 03:14:53;;;;;;;4.82;2.00;;;;;;;4.94;61.81;95613.91;10429231;27;96816;-64
2022/04/19 03:19:56;;;;;;;3.20;1.88;;;;;;;4.81;62.67;95620.25;10433700;27;96902;-64
2022/04/19 03:30:23;;;;;;;2.00;1.50;;;;;;;4.76;62.48;95628.38;10430058;27;96933;-64
2022/04/19 03:35:26;;;;;;;2.63;1.77;;;;;;;4.75;62.71;95624.16;10437095;27;96787;-64
2022/04/19 03:40:30;;;;;;;2.20;1.80;;;;;;;4.68;62.38;95625.59;10433756;27;96773;-64
2022/04/19 03:45:33;;;;;;;2.78;1.70;;;;;;;4.68;62.22;95618.66;10421711;27;98335;-64
2022/04/19 03:50:36;;;;;;;4.05;2.03;;;;;;;4.57;62.54;95614.34;10437905;27;97005;-64
2022/04/19 03:55:40;;;;;;;6.05;1.88;;;;;;;4.32;64.85;95620.72;10421822;27;97827;-64
2022/04/19 04:00:43;;;;;;;3.28;1.80;;;;;;;4.14;65.15;95606.69;10427575;27;97227;-64
2022/04/19 04:05:46;;;;;;;4.15;1.80;;;;;;;4.35;63.49;95611.88;10442943;27;97052;-64
2022/04/19 04:10:51;;;;;;;2.50;1.67;;;;;;;4.18;64.16;95608.91;10433480;27;98917;-64
2022/04/19 04:15:54;;;;;;;2.45;1.40;;;;;;;4.13;64.47;95611.06;10444631;27;102540;-64
2022/04/19 04:20:57;;;;;;;3.15;1.63;;;;;;;4.01;64.78;95615.44;10439862;27;97010;-64
2022/04/19 04:26:01;;;;;;;1.70;1.38;;;;;;;4.12;64.94;95619.75;10453720;27;97828;-64
2022/04/19 04:31:06;;;;;;;3.30;1.50;;;;;;;4.12;63.51;95611.97;10435404;27;96912;-64
2022/04/19 04:36:09;;;;;;;2.53;1.73;;;;;;;4.29;63.34;95625.31;10443098;27;97667;-64
2022/04/19 04:41:13;;;;;;;2.22;1.50;;;;;;;3.99;63.93;95626.84;10440035;27;96829;-64
2022/04/19 04:51:37;;;;;;;4.72;2.55;;;;;;;4.03;63.33;95630.81;10443696;27;97009;-64
2022/04/19 04:56:41;;;;;;;4.63;2.42;;;;;;;4.03;63.92;95630.81;10444678;27;97043;-64
2022/04/19 05:01:44;;;;;;;2.30;1.80;;;;;;;3.86;64.85;95628.75;10434129;27;97159;-64
2022/04/19 05:06:47;;;;;;;2.40;1.60;;;;;;;3.81;65.20;95632.53;10444111;27;98516;-64
2022/04/19 05:11:52;;;;;;;2.35;1.60;;;;;;;4.07;63.76;95626.22;10443762;27;100736;-64
2022/04/19 05:16:55;;;;;;;4.18;1.85;;;;;;;4.07;64.48;95624.44;10435281;27;100592;-64
2022/04/19 05:21:58;;;;;;;2.47;1.40;;;;;;;4.24;63.33;95630.06;10438313;27;96898;-64
2022/04/19 05:27:02;;;;;;;2.35;1.50;;;;;;;4.34;62.27;95634.34;10439131;27;96871;-64
2022/04/19 05:32:06;;;;;;;7.72;2.30;;;;;;;4.49;62.40;95640.06;10442607;27;97202;-64
2022/04/19 05:37:09;;;;;;;3.83;1.95;;;;;;;4.68;62.12;95635.94;10444925;27;96712;-64
2022/04/19 05:42:13;;;;;;;2.40;1.50;;;;;;;4.79;61.23;95638.47;10446651;27;96828;-64
2022/04/19 05:47:16;;;;;;;3.70;2.00;;;;;;;4.89;60.95;95639.34;10445802;27;97751;-64
2022/04/19 05:52:19;;;;;;;4.60;2.20;;;;;;;5.10;60.56;95644.50;10436293;27;96953;-65
2022/04/19 05:57:23;;;;;;;3.85;2.40;;;;;;;5.32;59.99;95651.28;10437264;27;100756;-64
2022/04/19 06:07:48;;;;;;;6.10;2.92;;;;;;;5.74;58.82;95650.34;10433871;27;99023;-64
2022/04/19 06:12:52;;;;;;;5.03;3.10;;;;;;;5.86;59.81;95643.25;10437774;27;98304;-64
2022/04/19 06:17:55;;;;;;;4.03;3.00;;;;;;;6.07;61.04;95641.41;10441876;27;98400;-64
2022/04/19 06:22:58;;;;;;;3.83;2.20;;;;;;;6.33;60.22;95647.81;10442853;27;100134;-64
2022/04/19 06:28:02;;;;;;;3.65;2.20;;;;;;;6.50;58.62;95643.75;10439037;27;97781;-64
2022/04/19 06:33:05;;;;;;;3.35;2.70;;;;;;;6.72;58.54;95650.44;10427724;27;96974;-64
2022/04/19 06:38:08;;;;;;;4.68;2.45;;;;;;;6.89;57.50;95646.31;10430069;27;96774;-64
2022/04/19 06:43:12;;;;;;;4.28;2.63;;;;;;;7.07;59.13;95649.03;10422997;27;96755;-64
2022/04/19 06:48:16;;;;;;;4.05;2.10;;;;;;;7.30;58.84;95649.50;10422294;27;100781;-64
2022/04/19 06:53:18;;;;;;;3.72;2.08;;;;;;;7.40;57.32;95650.28;10426060;27;96866;-64
2022/04/19 06:58:23;;;;;;;5.15;2.03;;;;;;;7.40;56.40;95647.69;10425957;27;96945;-64
2022/04/19 07:03:27;;;;;;;5.78;2.28;;;;;;;7.40;56.70;95645.91;10421612;27;96835;-64
2022/04/19 07:08:30;;;;;;;2.88;1.90;;;;;;;7.54;55.97;95642.00;10424470;27;96714;-64
2022/04/19 07:13:34;;;;;;;7.15;2.20;;;;;;;7.77;57.04;95636.44;10426803;27;96736;-64
2022/04/19 07:18:37;;;;;;;3.50;2.22;;;;;;;7.99;57.06;95630.00;10423227;27;96851;-64
2022/04/19 07:29:01;;;;;;;4.70;2.83;;;;;;;8.30;56.53;95630.47;10426147;27;97018;-64
2022/04/19 07:34:04;;;;;;;5.23;2.27;;;;;;;8.40;55.80;95627.00;10425124;27;96878;-64
2022/04/19 07:39:08;;;;;;;2.85;2.20;;;;;;;8.50;55.50;95620.75;10420467;27;96722;-64
2022/04/19 07:44:12;;;;;;;3.95;2.33;;;;;;;8.63;55.79;95617.75;10426406;27;96799;-64
2022/04/19 07:49:15;;;;;;;3.13;1.93;;;;;;;8.87;54.83;95626.72;10425081;27;96855;-64
2022/04/19 07:54:18;;;;;;;4.47;2.22;;;;;;;9.11;54.91;95616.47;10421241;27;97926;-64
2022/04/19 07:59:23;;;;;;;2.90;1.85;;;;;;;9.28;54.98;95614.75;10443250;27;96851;-65
2022/04/19 08:04:26;;;;;;;4.67;2.33;;;;;;;9.44;54.14;95619.28;10433304;27;99108;-64
2022/04/19 08:09:33;;;;;;;3.92;2.10;;;;;;;9.64;53.70;95605.97;10429198;27;96865;-64
2022/04/19 08:14:41;;;;;;;2.25;1.80;;;;;;;9.79;53.57;95604.41;10429381;27;96853;-64
2022/04/19 08:19:44;;;;;;;2.20;1.90;;;;;;;9.94;53.58;95602.00;10432254;27;97053;-64
2022/04/19 08:24:47;;;;;;;3.80;2.30;;;;;;;10.09;53.38;95599.59;10430847;27;96912;-64
2022/04/19 08:29:51;;;;;;;3.38;2.03;;;;;;;10.30;52.81;95595.69;10426415;27;96739;-64
2022/04/19 08:34:56;;;;;;;4.97;2.50;;;;;;;10.48;52.82;95596.38;10431445;27;96811;-64
2022/04/19 08:39:59;;;;;;;3.43;2.20;;;;;;;10.60;52.52;95597.69;10430869;27;97123;-64
2022/04/19 08:45:05;;;;;;;3.75;2.08;;;;;;;10.82;51.65;95584.91;10425695;27;96987;-64
2022/04/19 08:50:11;;;;;;;3.20;1.67;;;;;;;11.11;51.09;95588.81;10430228;27;96820;-64
2022/04/19 09:00:39;;;;;;;2.88;1.70;;;;;;;11.72;49.58;95581.25;10298016;28;96970;-64
2022/04/19 09:05:50;;;;;;;2.08;1.60;;;;;;;11.97;48.87;95579.34;10297530;28;97015;-64
2022/04/19 09:11:05;;;;;;;3.40;1.90;;;;;;;12.29;48.57;95572.25;10297330;28;97104;-64
2022/04/19 09:16:09;;;;;;;3.60;1.80;;;;;;;12.58;48.37;95571.56;10297671;28;96803;-64
2022/04/19 09:21:12;;;;;;;;;;;;;;;12.92;48.31;95566.84;10296467;28;96910;-64
2022/04/19 09:26:16;;;;;;;3.78;1.95;;;;;;;13.17;47.86;95568.25;10300146;28;97061;-64
2022/04/19 09:31:30;;;;;;;4.50;2.00;;;;;;;13.40;47.02;95562.09;10300291;28;97019;-64
2022/04/19 09:36:34;;;;;;;2.55;1.80;;;;;;;13.58;45.82;95552.00;10367379;27;97008;-64
2022/04/19 09:41:38;;;;;;;3.00;1.98;;;;;;;13.77;45.44;95549.81;10426409;27;96707;-64
2022/04/19 09:47:01;;;;;;;3.25;1.90;;;;;;;14.06;44.45;95542.88;10430006;27;97339;-64
2022/04/19 09:52:05;;;;;;;5.18;2.30;;;;;;;14.35;44.99;95536.72;10429358;27;96743;-64
2022/04/19 09:57:09;;;;;;;3.97;1.80;;;;;;;14.62;43.34;95526.44;10423873;27;97026;-64
2022/04/19 10:12:58;;;;;;;4.47;2.50;;;;;;;15.02;42.46;95522.25;10428237;27;97088;-64
2022/04/19 10:18:04;;;;;;;4.00;2.10;;;;;;;15.32;41.25;95507.03;10423964;27;97024;-64
2022/04/19 10:23:09;;;;;;;3.80;2.00;;;;;;;15.46;41.70;95504.47;10427359;27;96774;-65
2022/04/19 10:28:13;;;;;;;4.55;2.30;;;;;;;15.58;40.55;95500.31;10427134;27;96763;-64
2022/04/19 10:33:48;;;;;;;3.65;2.05;;;;;;;15.41;40.48;95489.28;10422965;27;96804;-64
2022/04/19 10:39:23;;;;;;;4.03;2.10;;;;;;;15.43;40.92;95489.88;10439099;27;96819;-64
2022/04/19 10:44:31;;;;;;;5.28;2.20;;;;;;;15.55;40.87;95478.78;10438863;27;96849;-64
2022/04/19 10:49:51;;;;;;;3.15;2.28;;;;;;;15.53;38.98;95483.44;10426607;27;96740;-64
2022/04/19 10:55:04;;;;;;;4.90;2.17;;;;;;;15.60;39.70;95471.13;10425077;27;96894;-64
2022/04/19 11:00:21;;;;;;;2.30;1.67;;;;;;;15.63;37.86;95473.38;10421755;27;97130;-65
2022/04/19 11:05:43;;;;;;;4.40;1.90;;;;;;;15.69;37.66;95459.44;10437745;27;97538;-64
2022/04/19 11:10:47;;;;;;;2.33;1.63;;;;;;;15.84;38.07;95448.72;10426049;27;99766;-64
2022/04/19 11:15:57;;;;;;;3.25;1.70;;;;;;;16.06;38.10;95446.72;10425546;27;96745;-64
2022/04/19 11:21:04;;;;;;;3.70;1.80;;;;;;;16.16;37.53;95433.97;10403342;27;97446;-64
2022/04/19 11:26:08;;;;;;;3.70;1.85;;;;;;;16.44;37.65;95435.56;10424674;27;96848;-64
2022/04/19 11:31:14;;;;;;;2.30;1.50;;;;;;;16.65;37.03;95426.63;10426945;27;96763;-64
2022/04/19 11:36:20;;;;;;;2.83;1.90;;;;;;;16.90;36.67;95418.06;10422837;27;96930;-65
2022/04/19 11:46:47;;;;;;;3.80;1.63;;;;;;;17.40;35.68;95420.13;10423863;27;97149;-64
2022/04/19 11:51:54;;;;;;;2.10;1.40;;;;;;;17.59;35.21;95407.84;10425086;27;96711;-65
2022/04/19 11:56:58;;;;;;;3.50;1.45;;;;;;;17.68;34.97;95406.56;10420337;27;96843;-64
2022/04/19 12:02:07;;;;;;;5.13;1.50;;;;;;;17.81;35.04;95408.34;10424322;27;97017;-64
2022/04/19 12:07:12;;;;;;;3.55;2.13;;;;;;;17.93;34.13;95401.38;10424674;27;96722;-64
2022/04/19 12:12:15;;;;;;;;;;;;;;;17.97;35.28;95396.47;10421826;27;96863;-65
2022/04/19 12:17:20;;;;;;;2.65;1.42;;;;;;;18.18;34.50;95395.28;10425235;27;96911;-64
2022/04/19 12:22:25;;;;;;;2.70;1.35;;;;;;;18.36;34.53;95382.13;10424844;27;96947;-65
2022/04/19 12:27:29;;;;;;;2.35;1.33;;;;;;;18.49;34.71;95383.81;10421423;27;96906;-65
2022/04/19 12:32:51;;;;;;;2.60;1.50;;;;;;;18.69;34.06;95379.13;10421071;27;97395;-64
2022/04/19 12:38:13;;;;;;;2.92;1.30;;;;;;;18.32;32.80;95372.97;10421189;27;96924;-65
2022/04/19 12:43:18;;;;;;;2.13;1.38;;;;;;;18.28;33.63;95362.03;10428885;27;96882;-64
2022/04/19 12:48:23;;;;;;;3.03;1.50;;;;;;;18.48;33.93;95353.94;10427022;27;98947;-65
2022/04/19 12:53:27;;;;;;;;;;;;;;;18.78;33.35;95352.41;10430966;27;97234;-64
2022/04/19 12:58:31;;;;;;;3.92;1.50;;;;;;;19.02;33.61;95343.59;10430818;27;96791;-64
2022/04/19 13:03:33;;;;;;;3.08;1.52;;;;;;;19.14;32.33;95338.34;10427070;27;96740;-65
2022/04/19 13:13:59;;;;;;;2.70;1.60;;;;;;;19.33;32.99;95330.34;10432295;27;96891;-64
2022/04/19 13:19:01;;;;;;;4.50;1.42;;;;;;;19.35;32.34;95325.63;10429640;27;98542;-65
2022/04/19 13:24:07;;;;;;;2.15;1.50;;;;;;;18.93;31.72;95322.94;10425791;27;96902;-64
2022/04/19 13:29:11;;;;;;;3.35;1.40;;;;;;;19.00;31.92;95318.34;10428310;27;97186;-65
2022/04/19 13:34:13;;;;;;;3.88;1.52;;;;;;;19.38;31.63;95311.94;10430895;27;96756;-65
2022/04/19 13:39:18;;;;;;;1.83;1.20;;;;;;;19.71;30.80;95305.34;10425254;27;97399;-64
2022/04/19 13:44:21;;;;;;;;;;;;;;;19.77;31.11;95299.16;10429417;27;97083;-65
2022/04/19 13:49:25;;;;;;;2.63;1.52;;;;;;;19.50;31.46;95299.53;10428371;27;96923;-65
2022/04/19 13:54:29;;;;;;;1.90;1.40;;;;;;;19.75;30.70;95293.28;10424486;27;96840;-65
2022/04/19 13:59:34;;;;;;;3.50;1.50;;;;;;;19.92;31.68;95286.31;10426299;27;98679;-65
2022/04/19 14:04:37;;;;;;;3.83;1.40;;;;;;;19.92;31.12;95286.31;10428669;27;97027;-65
2022/04/19 14:09:42;;;;;;;3.28;1.17;;;;;;;20.09;31.23;95280.28;10428625;27;96961;-65
2022/04/19 14:14:45;;;;;;;2.30;1.45;;;;;;;20.59;30.66;95279.78;10424920;27;96826;-65
2022/04/19 14:19:51;;;;;;;2.20;1.15;;;;;;;21.06;30.23;95273.56;10426805;27;96731;-64
2022/04/19 14:24:55;;;;;;;3.58;1.10;;;;;;;21.63;29.54;95270.06;10427620;27;96935;-65
2022/04/19 14:35:20;;;;;;;2.05;1.00;;;;;;;22.19;28.68;95262.91;10426650;27;96779;-65
2022/04/19 14:40:24;;;;;;;1.60;1.00;;;;;;;21.17;29.16;95254.09;10427579;27;97054;-65
2022/04/19 14:45:27;;;;;;;2.05;1.05;;;;;;;21.19;28.96;95251.19;10423255;27;96741;-64
2022/04/19 14:50:31;;;;;;;3.07;1.20;;;;;;;20.62;29.67;95252.78;10426345;27;96697;-65
2022/04/19 14:55:37;;;;;;;2.80;1.20;;;;;;;20.67;29.31;95244.94;10427239;27;96750;-64
2022/04/19 15:00:40;;;;;;;3.10;0.98;;;;;;;20.62;29.45;95252.78;10424579;27;98633;-64
2022/04/19 15:05:44;;;;;;;1.73;0.77;;;;;;;20.82;29.63;95238.31;10422294;27;97061;-64
2022/04/19 15:10:48;;;;;;;1.05;0.70;;;;;;;21.41;28.75;95232.72;10425413;27;97130;-65
2022/04/19 15:15:52;;;;;;;2.05;1.08;;;;;;;21.96;28.59;95231.22;10425876;27;96755;-65
2022/04/19 15:20:54;;;;;;;2.50;0.80;;;;;;;22.35;27.76;95221.38;10419405;27;96767;-64
2022/04/19 15:25:59;;;;;;;1.77;0.80;;;;;;;22.69;27.89;95225.81;10427352;27;96885;-64
2022/04/19 15:31:03;;;;;;;1.70;0.65;;;;;;;22.76;26.87;95210.44;10427268;27;96983;-64
2022/04/19 15:36:06;;;;;;;1.73;1.00;;;;;;;23.14;27.44;95216.69;10421334;27;96729;-65
2022/04/19 15:41:11;;;;;;;0.77;0.60;;;;;;;23.25;27.18;95215.72;10424746;27;96951;-64
2022/04/19 15:46:13;;;;;;;1.33;0.88;;;;;;;23.52;26.55;95214.94;10425656;27;96746;-65
2022/04/19 15:51:17;;;;;;;0.90;0.70;;;;;;;23.42;27.07;95209.50;10421126;27;96922;-65
2022/04/19 15:56:21;;;;;;;;;;;;;;;23.41;27.87;95208.72;10424967;27;96926;-65
2022/04/19 16:01:25;;;;;;;1.48;0.63;;;;;;;23.13;27.30;95209.75;10423203;27;96957;-65
2022/04/19 16:06:28;;;;;;;2.13;0.73;;;;;;;23.73;26.24;95214.00;10422539;27;96800;-64
2022/04/19 16:11:32;;;;;;;1.13;0.77;;;;;;;24.28;26.09;95211.19;10431817;27;97615;-64
2022/04/19 16:27:22;;;;;;;3.45;0.90;;;;;;;22.43;27.08;95207.63;10452123;27;98602;-64
2022/04/19 16:32:25;;;;;;;1.63;1.00;;;;;;;21.57;27.49;95215.19;10453041;27;97886;-64
2022/04/19 16:37:28;;;;;;;1.40;0.80;;;;;;;20.37;28.68;95208.78;10438371;27;96824;-64
2022/04/19 16:42:33;;;;;;;1.23;0.82;;;;;;;19.75;28.94;95208.50;10460191;27;97343;-64
2022/04/19 16:47:36;;;;;;;2.33;0.98;;;;;;;19.47;30.26;95204.66;10450549;27;97618;-64
2022/04/19 16:52:41;;;;;;;1.23;0.80;;;;;;;19.37;30.28;95205.22;10448863;27;97098;-64
2022/04/19 16:57:46;;;;;;;1.98;0.80;;;;;;;19.78;30.03;95202.69;10472812;27;96940;-64
2022/04/19 17:02:49;;;;;;;1.50;1.00;;;;;;;20.20;29.77;95197.31;10440324;27;98244;-65
2022/04/19 17:07:52;;;;;;;1.58;0.88;;;;;;;20.60;30.23;95201.81;10449589;27;97814;-64
2022/04/19 17:12:57;;;;;;;4.13;0.90;;;;;;;20.80;30.36;95200.59;10453751;27;97010;-64
2022/04/19 17:18:00;;;;;;;1.08;0.70;;;;;;;20.57;30.18;95203.06;10457511;27;97348;-64
2022/04/19 17:23:03;;;;;;;1.58;0.80;;;;;;;20.32;30.43;95195.44;10458021;27;96959;-64
2022/04/19 17:28:07;;;;;;;1.42;0.70;;;;;;;19.91;30.00;95189.25;10456657;27;97462;-63
2022/04/19 17:33:10;;;;;;;;;;;;;;;19.38;31.11;95206.84;10456642;27;96795;-63
2022/04/19 17:38:13;;;;;;;2.10;0.95;;;;;;;18.56;32.47;95202.06;10445720;27;96901;-63
2022/04/19 17:43:17;;;;;;;3.10;1.00;;;;;;;17.86;32.50;95211.19;10430981;27;101881;-64
2022/04/19 17:48:20;;;;;;;1.60;0.98;;;;;;;17.54;32.91;95223.63;10423755;27;96903;-63
2022/04/19 17:58:46;;;;;;;2.92;1.08;;;;;;;17.11;33.81;95213.78;10441225;27;97195;-63
2022/04/19 18:03:49;;;;;;;1.38;0.90;;;;;;;16.98;33.99;95219.97;10438992;27;98744;-63
2022/04/19 18:08:52;;;;;;;2.60;1.20;;;;;;;16.74;34.50;95224.16;10455505;27;96816;-63
2022/04/19 18:13:57;;;;;;;2.90;1.17;;;;;;;16.49;34.88;95227.50;10433953;27;98738;-63
2022/04/19 18:19:00;;;;;;;1.42;1.05;;;;;;;16.31;34.80;95235.28;10426088;27;96929;-63
2022/04/19 18:29:25;;;;;;;1.17;0.90;;;;;;;15.57;36.14;95238.03;10449032;27;96992;-63
2022/04/19 18:34:28;;;;;;;1.50;1.10;;;;;;;15.34;36.41;95246.34;10434864;27;99763;-65
2022/04/19 18:39:30;;;;;;;1.23;0.77;;;;;;;15.12;36.98;95238.59;10440102;27;97334;-64
2022/04/19 18:44:36;;;;;;;3.13;1.30;;;;;;;14.98;37.28;95239.59;10448677;27;97295;-64
2022/04/19 18:49:39;;;;;;;1.60;0.90;;;;;;;14.80;36.84;95244.63;10447793;27;96997;-64
2022/04/19 18:54:42;;;;;;;1.60;1.10;;;;;;;14.65;37.52;95245.59;10445021;27;96960;-64
2022/04/19 18:59:47;;;;;;;2.55;1.17;;;;;;;14.60;37.78;95261.13;10443446;27;99563;-65
2022/04/19 19:04:50;;;;;;;1.58;0.93;;;;;;;14.52;37.95;95266.56;10443158;27;99257;-64
2022/04/19 19:09:53;;;;;;;3.35;1.20;;;;;;;14.40;38.58;95291.78;10432450;27;97267;-64
2022/04/19 19:14:57;;;;;;;4.28;1.30;;;;;;;14.30;38.20;95287.66;10422155;27;102352;-64
2022/04/19 19:20:01;;;;;;;1.92;1.00;;;;;;;14.23;39.01;95281.56;10436596;27;102750;-65
2022/04/19 19:25:05;;;;;;;3.83;1.20;;;;;;;14.15;38.69;95286.97;10441816;27;96998;-64
2022/04/19 19:30:12;;;;;;;1.73;1.17;;;;;;;14.10;39.32;95295.41;10452137;27;96732;-64
2022/04/19 19:35:15;;;;;;;1.58;0.93;;;;;;;14.03;39.55;95291.13;10443299;27;97644;-64
2022/04/19 19:40:18;;;;;;;1.70;1.10;;;;;;;13.99;38.81;95288.88;10443029;27;96864;-64
2022/04/19 19:45:22;;;;;;;1.48;1.05;;;;;;;13.98;39.23;95295.16;10443914;27;98315;-64
2022/04/19 19:50:25;;;;;;;3.78;1.40;;;;;;;13.99;38.81;95291.50;10461908;27;97120;-64
2022/04/19 19:55:28;;;;;;;2.33;1.20;;;;;;;13.99;38.64;95303.84;10453302;27;96817;-64
2022/04/19 20:00:33;;;;;;;2.50;1.10;;;;;;;13.97;38.76;95301.41;10445586;27;98023;-64
2022/04/19 20:05:36;;;;;;;2.90;1.20;;;;;;;13.91;39.32;95309.22;10450148;27;98436;-65
2022/04/19 20:10:39;;;;;;;5.03;2.67;;;;;;;13.85;39.05;95305.56;10450988;27;97033;-65
2022/04/19 20:15:44;;;;;;;4.10;2.03;;;;;;;13.79;39.59;95314.19;10447764;27;97200;-65
2022/04/19 20:20:47;;;;;;;3.30;1.23;;;;;;;13.74;39.20;95308.69;10455087;27;96974;-66
2022/04/19 20:25:50;;;;;;;2.33;1.10;;;;;;;13.71;39.32;95306.47;10440985;27;97789;-64
2022/04/19 20:30:55;;;;;;;2.05;1.00;;;;;;;13.63;39.81;95313.47;10446923;27;96782;-64
2022/04/19 20:35:58;;;;;;;6.33;3.00;;;;;;;13.58;39.43;95310.59;10436224;27;96894;-64
2022/04/19 20:41:01;;;;;;;5.28;2.60;;;;;;;13.42;39.79;95308.25;10440978;27;97171;-64
2022/04/19 20:46:05;;;;;;;3.22;2.00;;;;;;;13.16;40.52;95322.72;10432478;27;98740;-64
2022/04/19 20:51:09;;;;;;;4.88;1.90;;;;;;;12.97;41.06;95325.94;10443606;27;98250;-64
2022/04/19 20:56:11;;;;;;;2.88;1.58;;;;;;;12.87;41.14;95324.41;10454085;27;97230;-65
2022/04/19 21:01:16;;;;;;;3.50;1.90;;;;;;;12.75;41.33;95312.78;10451124;27;96732;-64
2022/04/19 21:06:19;;;;;;;4.10;1.40;;;;;;;12.38;42.66;95314.53;10455618;27;96936;-64
2022/04/19 21:11:24;;;;;;;3.50;1.30;;;;;;;12.04;43.68;95313.28;10459039;27;98904;-65
2022/04/19 21:16:28;;;;;;;4.32;2.40;;;;;;;11.77;44.30;95316.47;10457632;27;97059;-64
2022/04/19 21:21:31;;;;;;;2.17;1.53;;;;;;;11.74;43.98;95318.47;10453026;27;98420;-64
2022/04/19 21:26:34;;;;;;;2.47;1.70;;;;;;;11.79;43.43;95323.16;10454347;27;96957;-63
2022/04/19 21:31:39;;;;;;;7.45;4.55;;;;;;;11.85;43.57;95326.84;10438662;27;98212;-65
2022/04/19 21:36:45;;;;;;;3.38;2.20;;;;;;;11.82;42.96;95335.06;10450613;27;96959;-64
2022/04/19 21:41:49;;;;;;;3.53;1.70;;;;;;;11.74;43.39;95328.09;10453506;27;96832;-64
2022/04/19 21:46:53;;;;;;;2.95;1.42;;;;;;;11.50;43.94;95321.25;10441592;27;96926;-65
2022/04/19 21:51:58;;;;;;;3.90;2.40;;;;;;;10.93;45.67;95314.59;10450293;27;97411;-64
2022/04/19 21:57:01;;;;;;;4.10;1.83;;;;;;;10.55;46.95;95307.47;10448537;27;96921;-64
2022/04/19 22:02:08;;;;;;;3.25;1.60;;;;;;;10.31;47.79;95304.97;10443611;27;100679;-64
2022/04/19 22:07:11;;;;;;;2.28;1.42;;;;;;;10.22;47.55;95306.78;10447459;27;97962;-65
2022/04/19 22:12:13;;;;;;;2.88;1.50;;;;;;;10.06;47.96;95302.41;10452257;27;97533;-65
2022/04/19 22:17:18;;;;;;;7.20;3.40;;;;;;;9.78;49.14;95305.41;10447396;27;97334;-65
2022/04/19 22:22:20;;;;;;;4.67;2.10;;;;;;;9.69;49.93;95303.78;10458210;27;97188;-64
2022/04/19 22:27:23;;;;;;;7.88;2.85;;;;;;;9.66;49.89;95306.72;10432218;27;97215;-64
2022/04/19 22:32:27;;;;;;;4.93;2.15;;;;;;;9.65;49.50;95299.91;10434960;27;96884;-65
2022/04/19 22:37:30;;;;;;;2.97;1.70;;;;;;;9.69;49.42;95303.78;10447202;27;98045;-64
2022/04/19 22:42:33;;;;;;;4.93;2.05;;;;;;;9.70;48.81;95302.00;10448833;27;97576;-65
2022/04/19 22:47:37;;;;;;;2.00;1.25;;;;;;;9.65;49.17;95299.91;10450579;27;97440;-65
2022/04/19 22:52:40;;;;;;;2.25;1.50;;;;;;;9.65;48.54;95292.88;10443339;27;97083;-64
2022/04/19 22:57:43;;;;;;;2.85;1.60;;;;;;;9.56;48.52;95288.66;10439575;27;97961;-64
2022/04/19 23:02:47;;;;;;;3.70;1.83;;;;;;;9.41;49.15;95283.25;10447665;27;96968;-65
2022/04/19 23:07:50;;;;;;;2.63;1.67;;;;;;;9.31;50.01;95290.44;10444731;27;97935;-65
2022/04/19 23:12:53;;;;;;;2.83;1.60;;;;;;;9.42;49.26;95295.34;10443781;27;97079;-64
2022/04/19 23:17:57;;;;;;;5.07;2.03;;;;;;;9.41;49.66;95279.84;10432571;27;97077;-65
2022/04/19 23:23:00;;;;;;;3.03;2.00;;;;;;;9.22;49.55;95289.63;10448804;27;97181;-64
2022/04/19 23:28:03;;;;;;;4.80;2.00;;;;;;;9.08;49.71;95287.66;10441100;27;96909;-64
2022/04/19 23:33:08;;;;;;;2.97;1.85;;;;;;;8.98;50.23;95294.81;10446300;27;97179;-64
2022/04/19 23:38:11;;;;;;;3.20;1.63;;;;;;;8.92;49.79;95288.47;10429404;27;97130;-64
2022/04/19 23:43:13;;;;;;;3.67;1.85;;;;;;;8.95;50.48;95288.16;10426879;27;97569;-64
2022/04/19 23:48:18;;;;;;;2.28;1.63;;;;;;;8.60;51.65;95290.00;10424048;27;96857;-64
2022/04/19 23:53:20;;;;;;;4.35;2.30;;;;;;;8.35;52.70;95287.34;10443834;27;96975;-64
2022/04/19 23:58:23;;;;;;;5.25;2.33;;;;;;;8.06;54.04;95287.69;10433462;27;97889;-65
